sensor_id;sensor_type;location;lat;lon;timestamp;pressure;altitude;pressure_sealevel;temperature;humidity
50302;BME280;36550;50.472;19.744;2022-10-16T00:00:54;98251.21;;;13.53;70.63
50302;BME280;36550;50.472;19.744;2022-10-16T00:03:39;98247.74;;;13.50;70.67
50302;BME280;36550;50.472;19.744;2022-10-16T00:06:26;98255.64;;;13.47;70.91
50302;BME280;36550;50.472;19.744;2022-10-16T00:09:10;98254.31;;;13.47;70.95
50302;BME280;36550;50.472;19.744;2022-10-16T00:11:55;98260.62;;;13.46;71.23
50302;BME280;36550;50.472;19.744;2022-10-16T00:14:39;98263.30;;;13.48;71.02
50302;BME280;36550;50.472;19.744;2022-10-16T00:17:25;98264.09;;;13.49;70.87
50302;BME280;36550;50.472;19.744;2022-10-16T00:20:09;98267.03;;;13.53;70.79
50302;BME280;36550;50.472;19.744;2022-10-16T00:22:53;98263.86;;;13.53;70.79
50302;BME280;36550;50.472;19.744;2022-10-16T00:25:38;98271.27;;;13.54;70.68
50302;BME280;36550;50.472;19.744;2022-10-16T00:28:22;98274.95;;;13.55;70.63
50302;BME280;36550;50.472;19.744;2022-10-16T00:31:11;98266.33;;;13.60;70.65
50302;BME280;36550;50.472;19.744;2022-10-16T00:33:55;98264.52;;;13.63;70.65
50302;BME280;36550;50.472;19.744;2022-10-16T00:36:39;98276.99;;;13.70;70.69
50302;BME280;36550;50.472;19.744;2022-10-16T00:39:24;98278.09;;;13.77;70.68
50302;BME280;36550;50.472;19.744;2022-10-16T00:42:14;98284.99;;;13.80;70.64
50302;BME280;36550;50.472;19.744;2022-10-16T00:45:00;98280.25;;;13.80;70.56
50302;BME280;36550;50.472;19.744;2022-10-16T00:47:45;98284.20;;;13.80;70.51
50302;BME280;36550;50.472;19.744;2022-10-16T00:50:33;98278.63;;;13.76;70.48
50302;BME280;36550;50.472;19.744;2022-10-16T00:53:18;98278.56;;;13.71;70.53
50302;BME280;36550;50.472;19.744;2022-10-16T00:56:03;98278.56;;;13.71;70.53
50302;BME280;36550;50.472;19.744;2022-10-16T00:58:48;98278.55;;;13.69;70.53
50302;BME280;36550;50.472;19.744;2022-10-16T01:01:32;98278.02;;;13.69;70.53
50302;BME280;36550;50.472;19.744;2022-10-16T01:04:17;98278.31;;;13.70;70.53
50302;BME280;36550;50.472;19.744;2022-10-16T01:10:27;98281.39;;;13.64;70.68
50302;BME280;36550;50.472;19.744;2022-10-16T01:13:32;98284.25;;;13.60;70.83
50302;BME280;36550;50.472;19.744;2022-10-16T01:16:38;98280.52;;;13.56;70.94
50302;BME280;36550;50.472;19.744;2022-10-16T01:22:33;98284.39;;;13.48;71.36
50302;BME280;36550;50.472;19.744;2022-10-16T01:25:36;98291.45;;;13.43;71.33
50302;BME280;36550;50.472;19.744;2022-10-16T01:28:37;98291.93;;;13.40;71.79
50302;BME280;36550;50.472;19.744;2022-10-16T01:31:25;98290.33;;;13.39;71.72
50302;BME280;36550;50.472;19.744;2022-10-16T01:34:25;98291.16;;;13.42;71.65
50302;BME280;36550;50.472;19.744;2022-10-16T01:37:09;98291.45;;;13.43;71.74
50302;BME280;36550;50.472;19.744;2022-10-16T01:39:58;98294.63;;;13.45;71.69
50302;BME280;36550;50.472;19.744;2022-10-16T01:43:02;98289.62;;;13.46;71.66
50302;BME280;36550;50.472;19.744;2022-10-16T01:45:48;98293.31;;;13.45;71.98
50302;BME280;36550;50.472;19.744;2022-10-16T01:48:34;98288.77;;;13.40;71.84
50302;BME280;36550;50.472;19.744;2022-10-16T01:51:20;98293.78;;;13.39;71.76
50302;BME280;36550;50.472;19.744;2022-10-16T01:54:08;98285.58;;;13.38;71.98
50302;BME280;36550;50.472;19.744;2022-10-16T01:56:52;98284.80;;;13.38;71.98
50302;BME280;36550;50.472;19.744;2022-10-16T01:59:42;98285.78;;;13.32;72.42
50302;BME280;36550;50.472;19.744;2022-10-16T02:02:28;98282.62;;;13.32;72.41
50302;BME280;36550;50.472;19.744;2022-10-16T02:06:08;98276.72;;;13.27;72.47
50302;BME280;36550;50.472;19.744;2022-10-16T02:08:33;98282.76;;;13.25;72.39
50302;BME280;36550;50.472;19.744;2022-10-16T02:11:18;98287.70;;;13.19;72.99
50302;BME280;36550;50.472;19.744;2022-10-16T02:14:05;98288.70;;;13.16;72.88
50302;BME280;36550;50.472;19.744;2022-10-16T02:16:50;98300.83;;;13.17;72.86
50302;BME280;36550;50.472;19.744;2022-10-16T02:19:34;98297.64;;;13.15;73.17
50302;BME280;36550;50.472;19.744;2022-10-16T02:22:31;98297.14;;;13.15;72.84
50302;BME280;36550;50.472;19.744;2022-10-16T02:25:30;98295.00;;;13.15;72.87
50302;BME280;36550;50.472;19.744;2022-10-16T02:28:23;98300.25;;;13.12;73.28
50302;BME280;36550;50.472;19.744;2022-10-16T02:31:11;98299.70;;;13.10;73.16
50302;BME280;36550;50.472;19.744;2022-10-16T02:33:58;98294.37;;;13.07;73.35
50302;BME280;36550;50.472;19.744;2022-10-16T02:36:44;98295.97;;;13.06;73.56
50302;BME280;36550;50.472;19.744;2022-10-16T02:39:30;98291.75;;;13.07;73.49
50302;BME280;36550;50.472;19.744;2022-10-16T02:42:17;98293.88;;;13.08;73.37
50302;BME280;36550;50.472;19.744;2022-10-16T02:45:03;98299.16;;;13.08;73.44
50302;BME280;36550;50.472;19.744;2022-10-16T02:47:48;98295.98;;;13.08;73.28
50302;BME280;36550;50.472;19.744;2022-10-16T02:50:32;98293.12;;;13.10;73.31
50302;BME280;36550;50.472;19.744;2022-10-16T02:53:16;98298.09;;;13.09;73.55
50302;BME280;36550;50.472;19.744;2022-10-16T02:56:01;98299.39;;;13.06;73.58
50302;BME280;36550;50.472;19.744;2022-10-16T02:58:45;98306.22;;;13.05;73.88
50302;BME280;36550;50.472;19.744;2022-10-16T03:01:29;98305.19;;;13.06;73.73
50302;BME280;36550;50.472;19.744;2022-10-16T03:04:14;98306.22;;;13.05;73.75
50302;BME280;36550;50.472;19.744;2022-10-16T03:06:58;98301.19;;;13.03;73.70
50302;BME280;36550;50.472;19.744;2022-10-16T03:09:42;98302.95;;;12.98;73.89
50302;BME280;36550;50.472;19.744;2022-10-16T03:12:28;98307.38;;;12.95;73.77
50302;BME280;36550;50.472;19.744;2022-10-16T03:15:12;98308.12;;;12.90;73.99
50302;BME280;36550;50.472;19.744;2022-10-16T03:18:00;98308.36;;;12.88;73.95
50302;BME280;36550;50.472;19.744;2022-10-16T03:20:44;98309.67;;;12.88;73.97
50302;BME280;36550;50.472;19.744;2022-10-16T03:23:28;98313.33;;;12.87;73.87
50302;BME280;36550;50.472;19.744;2022-10-16T03:26:13;98327.01;;;12.84;74.24
50302;BME280;36550;50.472;19.744;2022-10-16T03:28:57;98323.00;;;12.82;74.24
50302;BME280;36550;50.472;19.744;2022-10-16T03:31:41;98331.43;;;12.81;73.90
50302;BME280;36550;50.472;19.744;2022-10-16T03:34:26;98331.19;;;12.83;73.88
50302;BME280;36550;50.472;19.744;2022-10-16T03:37:10;98334.14;;;12.86;73.74
50302;BME280;36550;50.472;19.744;2022-10-16T03:39:55;98338.97;;;12.92;73.70
50302;BME280;36550;50.472;19.744;2022-10-16T03:42:39;98341.45;;;12.99;73.62
50302;BME280;36550;50.472;19.744;2022-10-16T03:45:24;98340.45;;;13.02;73.52
50302;BME280;36550;50.472;19.744;2022-10-16T03:48:10;98346.20;;;13.02;73.31
50302;BME280;36550;50.472;19.744;2022-10-16T03:50:54;98345.39;;;12.99;73.17
50302;BME280;36550;50.472;19.744;2022-10-16T03:53:39;98345.84;;;12.93;72.96
50302;BME280;36550;50.472;19.744;2022-10-16T03:56:23;98349.16;;;12.86;72.76
50302;BME280;36550;50.472;19.744;2022-10-16T03:59:08;98351.41;;;12.80;72.83
50302;BME280;36550;50.472;19.744;2022-10-16T04:01:52;98353.70;;;12.74;72.90
50302;BME280;36550;50.472;19.744;2022-10-16T04:04:37;98353.84;;;12.67;72.86
50302;BME280;36550;50.472;19.744;2022-10-16T04:07:21;98351.98;;;12.65;72.99
50302;BME280;36550;50.472;19.744;2022-10-16T04:10:06;98361.86;;;12.58;73.50
50302;BME280;36550;50.472;19.744;2022-10-16T04:12:50;98368.20;;;12.42;74.00
50302;BME280;36550;50.472;19.744;2022-10-16T04:15:35;98362.48;;;12.31;73.98
50302;BME280;36550;50.472;19.744;2022-10-16T04:18:19;98368.73;;;12.27;73.70
50302;BME280;36550;50.472;19.744;2022-10-16T04:21:05;98361.83;;;12.24;73.68
50302;BME280;36550;50.472;19.744;2022-10-16T04:23:50;98360.22;;;12.23;73.70
50302;BME280;36550;50.472;19.744;2022-10-16T04:26:34;98357.33;;;12.22;73.64
50302;BME280;36550;50.472;19.744;2022-10-16T04:29:19;98361.53;;;12.23;73.64
50302;BME280;36550;50.472;19.744;2022-10-16T04:32:03;98361.53;;;12.23;73.70
50302;BME280;36550;50.472;19.744;2022-10-16T04:34:47;98369.86;;;12.17;73.85
50302;BME280;36550;50.472;19.744;2022-10-16T04:37:32;98363.41;;;12.10;73.88
50302;BME280;36550;50.472;19.744;2022-10-16T04:40:16;98367.33;;;12.08;73.87
50302;BME280;36550;50.472;19.744;2022-10-16T04:43:00;98371.80;;;12.07;73.99
50302;BME280;36550;50.472;19.744;2022-10-16T04:45:44;98368.34;;;12.07;73.94
50302;BME280;36550;50.472;19.744;2022-10-16T04:48:29;98357.82;;;12.07;73.99
50302;BME280;36550;50.472;19.744;2022-10-16T04:51:13;98359.47;;;12.10;73.96
50302;BME280;36550;50.472;19.744;2022-10-16T04:53:57;98368.44;;;12.12;74.03
50302;BME280;36550;50.472;19.744;2022-10-16T04:56:42;98370.41;;;12.05;74.63
50302;BME280;36550;50.472;19.744;2022-10-16T04:59:33;98370.17;;;11.92;75.59
50302;BME280;36550;50.472;19.744;2022-10-16T05:02:17;98372.36;;;11.83;75.53
50302;BME280;36550;50.472;19.744;2022-10-16T05:05:02;98375.91;;;11.77;75.83
50302;BME280;36550;50.472;19.744;2022-10-16T05:07:47;98375.34;;;11.75;75.58
50302;BME280;36550;50.472;19.744;2022-10-16T05:10:33;98380.94;;;11.79;75.31
50302;BME280;36550;50.472;19.744;2022-10-16T05:13:17;98377.36;;;11.85;75.22
50302;BME280;36550;50.472;19.744;2022-10-16T05:16:01;98375.26;;;11.84;75.31
50302;BME280;36550;50.472;19.744;2022-10-16T05:18:46;98373.05;;;11.79;75.60
50302;BME280;36550;50.472;19.744;2022-10-16T05:21:30;98376.13;;;11.75;75.41
50302;BME280;36550;50.472;19.744;2022-10-16T05:24:15;98370.83;;;11.73;75.53
50302;BME280;36550;50.472;19.744;2022-10-16T05:27:00;98379.73;;;11.72;75.52
50302;BME280;36550;50.472;19.744;2022-10-16T05:29:45;98378.72;;;11.73;75.81
50302;BME280;36550;50.472;19.744;2022-10-16T05:32:30;98382.66;;;11.73;76.57
50302;BME280;36550;50.472;19.744;2022-10-16T05:35:15;98378.42;;;11.72;76.70
50302;BME280;36550;50.472;19.744;2022-10-16T05:38:01;98374.25;;;11.73;76.25
50302;BME280;36550;50.472;19.744;2022-10-16T05:40:50;98377.78;;;11.79;76.15
50302;BME280;36550;50.472;19.744;2022-10-16T05:43:36;98380.85;;;11.88;76.04
50302;BME280;36550;50.472;19.744;2022-10-16T05:46:20;98373.43;;;11.97;75.92
50302;BME280;36550;50.472;19.744;2022-10-16T05:49:04;98380.70;;;12.06;75.80
50302;BME280;36550;50.472;19.744;2022-10-16T05:51:48;98383.80;;;12.18;75.73
50302;BME280;36550;50.472;19.744;2022-10-16T05:54:33;98384.09;;;12.19;76.18
50302;BME280;36550;50.472;19.744;2022-10-16T05:57:17;98386.27;;;12.22;76.12
50302;BME280;36550;50.472;19.744;2022-10-16T06:00:03;98397.06;;;12.23;76.12
50302;BME280;36550;50.472;19.744;2022-10-16T06:02:48;98398.94;;;12.25;76.34
50302;BME280;36550;50.472;19.744;2022-10-16T06:05:32;98411.11;;;12.28;76.31
50302;BME280;36550;50.472;19.744;2022-10-16T06:08:18;98419.10;;;12.33;76.84
50302;BME280;36550;50.472;19.744;2022-10-16T06:11:06;98422.98;;;12.45;76.37
50302;BME280;36550;50.472;19.744;2022-10-16T06:13:54;98439.83;;;12.59;76.17
50302;BME280;36550;50.472;19.744;2022-10-16T06:16:41;98439.81;;;12.73;76.10
50302;BME280;36550;50.472;19.744;2022-10-16T06:19:26;98437.39;;;12.86;75.97
50302;BME280;36550;50.472;19.744;2022-10-16T06:22:10;98430.93;;;12.94;75.77
50302;BME280;36550;50.472;19.744;2022-10-16T06:24:55;98436.23;;;12.96;75.62
50302;BME280;36550;50.472;19.744;2022-10-16T06:27:40;98446.33;;;13.02;75.46
50302;BME280;36550;50.472;19.744;2022-10-16T06:30:24;98454.96;;;13.14;75.44
50302;BME280;36550;50.472;19.744;2022-10-16T06:33:12;98449.86;;;13.24;75.40
50302;BME280;36550;50.472;19.744;2022-10-16T06:36:03;98451.40;;;13.37;75.40
50302;BME280;36550;50.472;19.744;2022-10-16T06:38:54;98451.30;;;13.49;75.34
50302;BME280;36550;50.472;19.744;2022-10-16T06:41:38;98451.16;;;13.58;75.25
50302;BME280;36550;50.472;19.744;2022-10-16T06:44:22;98463.89;;;13.64;75.10
50302;BME280;36550;50.472;19.744;2022-10-16T06:47:07;98461.55;;;13.65;74.87
50302;BME280;36550;50.472;19.744;2022-10-16T06:49:51;98469.16;;;13.64;74.52
50302;BME280;36550;50.472;19.744;2022-10-16T06:52:35;98468.37;;;13.63;74.41
50302;BME280;36550;50.472;19.744;2022-10-16T06:55:20;98472.12;;;13.67;74.44
50302;BME280;36550;50.472;19.744;2022-10-16T06:58:04;98478.23;;;13.71;74.43
50302;BME280;36550;50.472;19.744;2022-10-16T07:00:49;98473.73;;;13.69;74.32
50302;BME280;36550;50.472;19.744;2022-10-16T07:03:38;98480.03;;;13.67;74.20
50302;BME280;36550;50.472;19.744;2022-10-16T07:06:25;98476.84;;;13.65;74.16
50302;BME280;36550;50.472;19.744;2022-10-16T07:09:11;98477.92;;;13.67;74.16
50302;BME280;36550;50.472;19.744;2022-10-16T07:11:55;98478.79;;;13.73;74.17
50302;BME280;36550;50.472;19.744;2022-10-16T07:14:39;98477.03;;;13.81;74.26
50302;BME280;36550;50.472;19.744;2022-10-16T07:17:23;98469.25;;;13.89;74.19
50302;BME280;36550;50.472;19.744;2022-10-16T07:20:09;98478.33;;;13.98;74.11
50302;BME280;36550;50.472;19.744;2022-10-16T07:22:53;98484.73;;;14.04;73.89
50302;BME280;36550;50.472;19.744;2022-10-16T07:25:37;98484.63;;;14.16;73.86
50302;BME280;36550;50.472;19.744;2022-10-16T07:28:22;98485.86;;;14.31;73.79
50302;BME280;36550;50.472;19.744;2022-10-16T07:31:10;98485.19;;;14.43;73.51
50302;BME280;36550;50.472;19.744;2022-10-16T07:33:58;98479.58;;;14.59;72.90
50302;BME280;36550;50.472;19.744;2022-10-16T07:36:43;98479.58;;;14.59;72.90
50302;BME280;36550;50.472;19.744;2022-10-16T07:39:27;98488.77;;;14.78;72.71
50302;BME280;36550;50.472;19.744;2022-10-16T07:42:12;98488.77;;;14.78;72.71
50302;BME280;36550;50.472;19.744;2022-10-16T07:44:56;98482.77;;;14.88;72.50
50302;BME280;36550;50.472;19.744;2022-10-16T07:47:40;98489.49;;;15.01;72.43
50302;BME280;36550;50.472;19.744;2022-10-16T07:50:24;98497.23;;;15.10;72.14
50302;BME280;36550;50.472;19.744;2022-10-16T07:53:09;98497.00;;;15.14;71.36
50302;BME280;36550;50.472;19.744;2022-10-16T07:55:58;98493.63;;;15.21;71.37
50302;BME280;36550;50.472;19.744;2022-10-16T07:58:43;98500.04;;;15.31;71.44
50302;BME280;36550;50.472;19.744;2022-10-16T08:01:28;98501.50;;;15.49;71.62
50302;BME280;36550;50.472;19.744;2022-10-16T08:04:12;98507.95;;;15.66;71.57
50302;BME280;36550;50.472;19.744;2022-10-16T08:06:56;98505.98;;;15.83;71.38
50302;BME280;36550;50.472;19.744;2022-10-16T08:09:41;98510.52;;;15.90;69.83
50302;BME280;36550;50.472;19.744;2022-10-16T08:12:25;98513.49;;;16.02;69.97
50302;BME280;36550;50.472;19.744;2022-10-16T08:15:10;98512.98;;;16.10;69.28
50302;BME280;36550;50.472;19.744;2022-10-16T08:18:00;98515.19;;;16.26;68.99
50302;BME280;36550;50.472;19.744;2022-10-16T08:20:45;98514.19;;;16.45;68.87
50302;BME280;36550;50.472;19.744;2022-10-16T08:23:30;98512.41;;;16.63;67.90
50302;BME280;36550;50.472;19.744;2022-10-16T08:26:14;98516.67;;;16.74;66.28
50302;BME280;36550;50.472;19.744;2022-10-16T08:28:58;98525.20;;;16.92;66.70
50302;BME280;36550;50.472;19.744;2022-10-16T08:31:43;98527.36;;;17.08;66.13
50302;BME280;36550;50.472;19.744;2022-10-16T08:34:27;98525.24;;;17.23;66.01
50302;BME280;36550;50.472;19.744;2022-10-16T08:37:11;98523.66;;;17.37;66.59
50302;BME280;36550;50.472;19.744;2022-10-16T08:39:58;98521.26;;;17.43;64.86
50302;BME280;36550;50.472;19.744;2022-10-16T08:48:49;98518.34;;;17.32;63.74
50302;BME280;36550;50.472;19.744;2022-10-16T08:51:36;98523.37;;;17.36;63.98
50302;BME280;36550;50.472;19.744;2022-10-16T08:57:24;98527.88;;;17.56;64.33
50302;BME280;36550;50.472;19.744;2022-10-16T09:00:12;98528.67;;;17.67;63.12
50302;BME280;36550;50.472;19.744;2022-10-16T09:09:46;98527.84;;;18.00;61.45
50302;BME280;36550;50.472;19.744;2022-10-16T09:12:39;98525.45;;;17.93;60.85
50302;BME280;36550;50.472;19.744;2022-10-16T09:22:17;98537.15;;;17.84;61.25
50302;BME280;36550;50.472;19.744;2022-10-16T09:25:14;98533.95;;;17.80;61.60
50302;BME280;36550;50.472;19.744;2022-10-16T09:28:00;98547.79;;;17.77;61.58
50302;BME280;36550;50.472;19.744;2022-10-16T09:30:45;98545.12;;;17.74;62.02
50302;BME280;36550;50.472;19.744;2022-10-16T09:33:36;98545.64;;;17.81;62.46
50302;BME280;36550;50.472;19.744;2022-10-16T09:36:23;98546.19;;;17.88;62.15
50302;BME280;36550;50.472;19.744;2022-10-16T09:39:11;98538.22;;;17.94;61.89
50302;BME280;36550;50.472;19.744;2022-10-16T09:41:56;98552.02;;;18.01;61.88
50302;BME280;36550;50.472;19.744;2022-10-16T09:44:40;98546.69;;;18.03;61.35
50302;BME280;36550;50.472;19.744;2022-10-16T09:47:27;98548.01;;;18.08;61.38
50302;BME280;36550;50.472;19.744;2022-10-16T09:53:14;98559.17;;;18.08;61.22
50302;BME280;36550;50.472;19.744;2022-10-16T09:56:00;98557.84;;;18.03;60.50
50302;BME280;36550;50.472;19.744;2022-10-16T09:58:54;98554.94;;;17.99;60.98
50302;BME280;36550;50.472;19.744;2022-10-16T10:01:46;98560.77;;;18.01;61.17
50302;BME280;36550;50.472;19.744;2022-10-16T10:04:49;98560.24;;;18.04;61.01
50302;BME280;36550;50.472;19.744;2022-10-16T10:07:38;98559.95;;;18.14;61.04
50302;BME280;36550;50.472;19.744;2022-10-16T10:10:26;98560.45;;;18.23;61.07
50302;BME280;36550;50.472;19.744;2022-10-16T10:13:18;98561.19;;;18.37;61.37
50302;BME280;36550;50.472;19.744;2022-10-16T10:16:03;98561.68;;;18.49;60.97
50302;BME280;36550;50.472;19.744;2022-10-16T10:18:57;98560.83;;;18.59;60.56
50302;BME280;36550;50.472;19.744;2022-10-16T10:21:42;98558.98;;;18.57;59.99
50302;BME280;36550;50.472;19.744;2022-10-16T10:24:29;98556.05;;;18.58;59.89
50302;BME280;36550;50.472;19.744;2022-10-16T10:27:16;98556.33;;;18.59;59.82
50302;BME280;36550;50.472;19.744;2022-10-16T10:30:18;98555.23;;;18.65;60.32
50302;BME280;36550;50.472;19.744;2022-10-16T10:36:32;98568.95;;;18.88;60.70
50302;BME280;36550;50.472;19.744;2022-10-16T10:39:39;98575.60;;;18.88;59.95
50302;BME280;36550;50.472;19.744;2022-10-16T10:42:35;98566.32;;;18.85;60.27
50302;BME280;36550;50.472;19.744;2022-10-16T10:45:26;98567.67;;;18.83;60.36
50302;BME280;36550;50.472;19.744;2022-10-16T10:54:46;98565.46;;;18.98;59.92
50302;BME280;36550;50.472;19.744;2022-10-16T10:57:48;98564.64;;;19.00;59.19
50302;BME280;36550;50.472;19.744;2022-10-16T11:01:02;98563.83;;;19.02;59.01
50302;BME280;36550;50.472;19.744;2022-10-16T11:07:13;98557.72;;;19.01;59.03
50302;BME280;36550;50.472;19.744;2022-10-16T11:10:20;98558.75;;;19.06;59.38
50302;BME280;36550;50.472;19.744;2022-10-16T11:13:19;98562.45;;;19.10;59.59
50302;BME280;36550;50.472;19.744;2022-10-16T11:16:21;98565.86;;;19.15;59.45
50302;BME280;36550;50.472;19.744;2022-10-16T11:19:21;98564.23;;;19.19;59.30
50302;BME280;36550;50.472;19.744;2022-10-16T11:22:19;98562.02;;;19.32;59.76
50302;BME280;36550;50.472;19.744;2022-10-16T11:25:16;98555.09;;;19.33;58.30
50302;BME280;36550;50.472;19.744;2022-10-16T11:31:36;98554.52;;;19.39;58.23
50302;BME280;36550;50.472;19.744;2022-10-16T11:37:28;98554.48;;;19.44;59.18
50302;BME280;36550;50.472;19.744;2022-10-16T11:40:33;98559.73;;;19.54;59.36
50302;BME280;36550;50.472;19.744;2022-10-16T11:43:28;98561.23;;;19.63;58.92
50302;BME280;36550;50.472;19.744;2022-10-16T11:46:24;98564.48;;;19.60;58.71
50302;BME280;36550;50.472;19.744;2022-10-16T11:49:15;98556.88;;;19.43;58.07
50302;BME280;36550;50.472;19.744;2022-10-16T11:52:19;98559.33;;;19.37;58.45
50302;BME280;36550;50.472;19.744;2022-10-16T11:55:22;98561.48;;;19.35;59.22
50302;BME280;36550;50.472;19.744;2022-10-16T11:58:22;98563.59;;;19.38;59.54
50302;BME280;36550;50.472;19.744;2022-10-16T12:04:39;98553.97;;;19.39;59.05
50302;BME280;36550;50.472;19.744;2022-10-16T12:07:35;98550.80;;;19.37;59.07
50302;BME280;36550;50.472;19.744;2022-10-16T12:10:26;98560.18;;;19.30;59.55
50302;BME280;36550;50.472;19.744;2022-10-16T12:13:32;98564.72;;;19.29;59.33
50302;BME280;36550;50.472;19.744;2022-10-16T12:16:20;98563.87;;;19.34;59.63
50302;BME280;36550;50.472;19.744;2022-10-16T12:19:15;98557.76;;;19.33;59.25
50302;BME280;36550;50.472;19.744;2022-10-16T12:22:01;98556.91;;;19.40;59.51
50302;BME280;36550;50.472;19.744;2022-10-16T12:24:50;98558.48;;;19.41;59.42
50302;BME280;36550;50.472;19.744;2022-10-16T12:27:35;98558.23;;;19.40;58.86
50302;BME280;36550;50.472;19.744;2022-10-16T12:30:22;98565.12;;;19.44;59.19
50302;BME280;36550;50.472;19.744;2022-10-16T12:33:28;98562.20;;;19.43;58.53
50302;BME280;36550;50.472;19.744;2022-10-16T12:36:26;98572.27;;;19.49;58.79
50302;BME280;36550;50.472;19.744;2022-10-16T12:39:05;98577.86;;;19.50;58.46
50302;BME280;36550;50.472;19.744;2022-10-16T12:42:01;98577.83;;;19.55;58.55
50302;BME280;36550;50.472;19.744;2022-10-16T12:44:46;98572.98;;;19.59;57.63
50302;BME280;36550;50.472;19.744;2022-10-16T12:53:21;98579.47;;;19.83;58.10
50302;BME280;36550;50.472;19.744;2022-10-16T12:56:27;98578.69;;;19.79;57.01
50302;BME280;36550;50.472;19.744;2022-10-16T13:02:47;98581.16;;;19.73;57.72
50302;BME280;36550;50.472;19.744;2022-10-16T13:15:25;98574.73;;;19.77;58.40
50302;BME280;36550;50.472;19.744;2022-10-16T13:18:22;98579.71;;;19.84;58.12
50302;BME280;36550;50.472;19.744;2022-10-16T13:21:20;98576.72;;;19.93;57.54
50302;BME280;36550;50.472;19.744;2022-10-16T13:27:41;98579.41;;;20.14;57.50
50302;BME280;36550;50.472;19.744;2022-10-16T13:30:28;98583.08;;;20.21;56.69
50302;BME280;36550;50.472;19.744;2022-10-16T13:36:23;98595.77;;;20.32;56.18
50302;BME280;36550;50.472;19.744;2022-10-16T13:42:28;98587.36;;;20.19;55.04
50302;BME280;36550;50.472;19.744;2022-10-16T13:45:21;98593.32;;;20.11;55.28
50302;BME280;36550;50.472;19.744;2022-10-16T13:48:09;98586.72;;;20.04;55.50
50302;BME280;36550;50.472;19.744;2022-10-16T13:53:52;98587.47;;;19.83;55.65
50302;BME280;36550;50.472;19.744;2022-10-16T13:56:39;98593.11;;;19.71;55.89
50302;BME280;36550;50.472;19.744;2022-10-16T13:59:26;98596.13;;;19.64;56.38
50302;BME280;36550;50.472;19.744;2022-10-16T14:02:29;98599.91;;;19.55;56.38
50302;BME280;36550;50.472;19.744;2022-10-16T14:05:19;98602.09;;;19.48;56.84
50302;BME280;36550;50.472;19.744;2022-10-16T14:08:04;98592.05;;;19.37;56.99
50302;BME280;36550;50.472;19.744;2022-10-16T14:10:51;98596.38;;;19.31;57.11
50302;BME280;36550;50.472;19.744;2022-10-16T14:13:39;98592.93;;;19.28;57.67
50302;BME280;36550;50.472;19.744;2022-10-16T14:16:30;98591.90;;;19.23;57.83
50302;BME280;36550;50.472;19.744;2022-10-16T14:19:23;98585.25;;;19.23;58.01
50302;BME280;36550;50.472;19.744;2022-10-16T14:22:26;98589.00;;;19.17;58.11
50302;BME280;36550;50.472;19.744;2022-10-16T14:25:24;98580.25;;;19.14;58.17
50302;BME280;36550;50.472;19.744;2022-10-16T14:28:17;98589.33;;;19.11;58.19
50302;BME280;36550;50.472;19.744;2022-10-16T14:31:20;98586.69;;;19.03;58.16
50302;BME280;36550;50.472;19.744;2022-10-16T14:34:22;98576.91;;;18.96;58.33
50302;BME280;36550;50.472;19.744;2022-10-16T14:37:20;98584.64;;;18.90;58.58
50302;BME280;36550;50.472;19.744;2022-10-16T14:40:02;98594.27;;;18.83;58.98
50302;BME280;36550;50.472;19.744;2022-10-16T14:42:48;98594.77;;;18.77;59.13
50302;BME280;36550;50.472;19.744;2022-10-16T14:45:34;98588.41;;;18.73;59.30
50302;BME280;36550;50.472;19.744;2022-10-16T14:48:19;98600.94;;;18.68;59.49
50302;BME280;36550;50.472;19.744;2022-10-16T14:51:05;98603.89;;;18.63;59.65
50302;BME280;36550;50.472;19.744;2022-10-16T14:53:52;98616.91;;;18.65;59.80
50302;BME280;36550;50.472;19.744;2022-10-16T14:56:52;98615.05;;;18.65;60.01
50302;BME280;36550;50.472;19.744;2022-10-16T14:59:40;98620.08;;;18.64;60.13
50302;BME280;36550;50.472;19.744;2022-10-16T15:02:33;98617.47;;;18.59;60.10
50302;BME280;36550;50.472;19.744;2022-10-16T15:05:21;98621.72;;;18.55;60.31
50302;BME280;36550;50.472;19.744;2022-10-16T15:08:09;98628.41;;;18.45;60.30
50302;BME280;36550;50.472;19.744;2022-10-16T15:10:54;98626.56;;;18.38;60.64
50302;BME280;36550;50.472;19.744;2022-10-16T15:13:38;98630.58;;;18.30;60.73
50302;BME280;36550;50.472;19.744;2022-10-16T15:16:22;98636.69;;;18.25;60.89
50302;BME280;36550;50.472;19.744;2022-10-16T15:19:07;98634.31;;;18.16;61.25
50302;BME280;36550;50.472;19.744;2022-10-16T15:21:51;98642.02;;;18.07;61.47
50302;BME280;36550;50.472;19.744;2022-10-16T15:24:36;98632.22;;;17.98;61.80
50302;BME280;36550;50.472;19.744;2022-10-16T15:27:21;98634.87;;;17.93;61.94
50302;BME280;36550;50.472;19.744;2022-10-16T15:30:06;98636.99;;;17.85;62.33
50302;BME280;36550;50.472;19.744;2022-10-16T15:32:51;98637.78;;;17.81;62.18
50302;BME280;36550;50.472;19.744;2022-10-16T15:35:35;98642.02;;;17.74;62.38
50302;BME280;36550;50.472;19.744;2022-10-16T15:38:20;98638.83;;;17.67;62.28
50302;BME280;36550;50.472;19.744;2022-10-16T15:41:05;98641.74;;;17.58;62.44
50302;BME280;36550;50.472;19.744;2022-10-16T15:43:52;98639.63;;;17.49;63.04
50302;BME280;36550;50.472;19.744;2022-10-16T15:46:37;98635.88;;;17.45;62.95
50302;BME280;36550;50.472;19.744;2022-10-16T15:49:21;98635.62;;;17.39;63.11
50302;BME280;36550;50.472;19.744;2022-10-16T15:52:05;98638.52;;;17.30;63.11
50302;BME280;36550;50.472;19.744;2022-10-16T15:54:50;98645.69;;;17.22;63.34
50302;BME280;36550;50.472;19.744;2022-10-16T15:57:35;98658.64;;;17.16;63.25
50302;BME280;36550;50.472;19.744;2022-10-16T16:00:21;98658.38;;;17.09;63.21
50302;BME280;36550;50.472;19.744;2022-10-16T16:03:07;98648.26;;;16.99;63.99
50302;BME280;36550;50.472;19.744;2022-10-16T16:05:52;98657.23;;;16.90;64.26